Time;durP1;ratioP1;P1;durP2;ratioP2;P2;SDS_P1;SDS_P2;PMS_P1;PMS_P2;Temp;Humidity;BMP_temperature;BMP_pressure;BME280_temperature;BME280_humidity;BME280_pressure;Samples;Min_cycle;Max_cycle;Signal;HPM_P1;HPM_P2
2021/05/19 00:00:51;;;;;;;;;;;;;;;9.82;83.69;95180.14;1688582;85;20163;-63
2021/05/19 00:03:18;;;;;;;;;;;;;;;9.80;83.89;95178.45;1688304;85;20154;-63
2021/05/19 00:05:44;;;;;;;;;;;;;;;9.81;84.21;95181.06;1688226;85;20158;-63
2021/05/19 00:08:10;;;;;;;;;;;;;;;9.81;83.98;95178.88;1706180;84;20170;-63
2021/05/19 00:10:37;;;;;;;;;;;;;;;9.75;83.67;95174.17;1695466;85;20136;-63
2021/05/19 00:13:05;;;;;;;;;;;;;;;9.67;83.82;95173.90;1691818;85;20527;-63
2021/05/19 00:15:32;;;;;;;;;;;;;;;9.65;83.86;95178.33;1688638;85;20512;-62
2021/05/19 00:18:03;;;;;;;;;;;;;;;9.57;83.90;95173.23;1707624;84;20145;-62
2021/05/19 00:20:30;;;;;;;;;;;;;;;9.46;83.87;95177.88;1695611;85;20513;-62
2021/05/19 00:22:56;;;;;;;;;;;;;;;9.40;84.00;95177.56;1692058;85;20238;-62
2021/05/19 00:25:22;;;;;;;;;;;;;;;9.31;84.07;95177.28;1695715;85;20132;-63
2021/05/19 00:27:49;;;;;;;;;;;;;;;9.20;84.17;95179.73;1691844;85;20162;-62
2021/05/19 00:30:19;;;;;;;;;;;;;;;9.11;83.98;95179.45;1695709;85;20152;-62
2021/05/19 00:32:45;;;;;;;;;;;;;;;8.99;84.29;95184.48;1691378;85;20200;-63
2021/05/19 00:35:12;;;;;;;;;;;;;;;8.85;84.22;95179.95;1695681;85;20168;-62
2021/05/19 00:37:38;;;;;;;;;;;;;;;8.77;84.21;95184.47;1693090;83;20475;-63
2021/05/19 00:40:06;;;;;;;;;;;;;;;8.66;84.48;95192.55;1723442;83;20167;-62
2021/05/19 00:42:32;;;;;;;;;;;;;;;8.55;84.89;95194.06;1723125;83;20513;-63
2021/05/19 00:45:04;;;;;;;;;;;;;;;8.47;85.65;95199.02;1723406;83;20144;-62
2021/05/19 00:47:37;;;;;;;;;;;;;;;8.40;85.96;95204.39;1723624;83;20189;-62
2021/05/19 00:50:07;;;;;;;;;;;;;;;8.36;85.56;95200.03;1723429;83;20203;-62
2021/05/19 00:52:33;;;;;;;;;;;;;;;8.31;85.21;95190.03;1723411;83;20524;-62
2021/05/19 00:55:00;;;;;;;;;;;;;;;8.27;85.53;95186.19;1723619;83;20180;-62
2021/05/19 00:57:27;;;;;;;;;;;;;;;8.22;85.48;95187.12;1723636;83;20180;-63
2021/05/19 00:59:53;;;;;;;;;;;;;;;8.17;85.52;95186.78;1723483;83;20164;-62
2021/05/19 01:02:22;;;;;;;;;;;;;;;8.12;85.38;95188.62;1722864;83;20152;-62
2021/05/19 01:04:48;;;;;;;;;;;;;;;8.03;85.55;95177.33;1695213;83;20163;-62
2021/05/19 01:07:27;;;;;;;;;;;;;;;7.95;85.34;95180.53;1702923;83;20166;-62
2021/05/19 01:09:54;;;;;;;;;;;;;;;7.92;85.49;95189.78;1722633;83;20250;-62
2021/05/19 01:12:23;;;;;;;;;;;;;;;7.88;85.21;95191.16;1694875;85;20186;-62
2021/05/19 01:14:51;;;;;;;;;;;;;;;7.80;85.38;95194.75;1722345;83;20162;-63
2021/05/19 01:17:18;;;;;;;;;;;;;;;7.75;85.89;95194.41;1694880;85;20162;-63
2021/05/19 01:19:50;;;;;;;;;;;;;;;7.71;86.19;95195.32;1722454;83;20150;-64
2021/05/19 01:22:28;;;;;;;;;;;;;;;7.74;86.56;95200.11;1694833;85;20190;-63
2021/05/19 01:24:59;;;;;;;;;;;;;;;7.75;86.54;95196.58;1722628;83;20222;-64
2021/05/19 01:27:27;;;;;;;;;;;;;;;7.77;86.34;95194.80;1694721;85;20179;-63
2021/05/19 01:29:57;;;;;;;;;;;;;;;7.80;86.87;95205.26;1694158;83;20166;-63
2021/05/19 01:32:24;;;;;;;;;;;;;;;7.89;86.79;95202.96;1694779;85;20318;-63
2021/05/19 01:34:50;;;;;;;;;;;;;;;7.92;86.48;95202.05;1722481;83;20154;-63
2021/05/19 01:37:18;;;;;;;;;;;;;;;7.97;86.27;95201.53;1694700;85;20142;-63
2021/05/19 01:39:46;;;;;;;;;;;;;;;8.03;86.18;95206.23;1718141;83;20143;-63
2021/05/19 01:42:13;;;;;;;;;;;;;;;8.03;86.56;95198.34;1717080;83;20460;-63
2021/05/19 01:44:40;;;;;;;;;;;;;;;8.09;86.32;95196.52;1717203;84;20159;-63
2021/05/19 01:47:35;;;;;;;;;;;;;;;8.03;86.28;95188.30;1716763;83;20145;-63
2021/05/19 01:50:03;;;;;;;;;;;;;;;8.06;86.15;95184.30;1714838;83;20178;-63
2021/05/19 01:52:29;;;;;;;;;;;;;;;8.11;85.82;95190.34;1717277;84;20146;-63
2021/05/19 01:54:56;;;;;;;;;;;;;;;8.15;85.90;95175.42;1717086;84;20206;-63
2021/05/19 01:57:23;;;;;;;;;;;;;;;8.21;85.84;95182.77;1717327;84;20479;-63
2021/05/19 01:59:50;;;;;;;;;;;;;;;8.22;85.57;95184.95;1717117;84;20158;-63
2021/05/19 02:02:20;;;;;;;;;;;;;;;8.20;85.47;95178.39;1717108;83;20146;-63
2021/05/19 02:04:47;;;;;;;;;;;;;;;8.22;85.51;95181.87;1717145;84;20231;-63
2021/05/19 02:07:14;;;;;;;;;;;;;;;8.26;85.49;95179.18;1731643;82;20196;-63
2021/05/19 02:09:42;;;;;;;;;;;;;;;8.23;85.37;95184.05;1706562;84;20161;-63
2021/05/19 02:12:10;;;;;;;;;;;;;;;8.21;85.21;95180.14;1714865;84;20173;-63
2021/05/19 02:14:37;;;;;;;;;;;;;;;8.22;85.17;95185.81;1736863;83;20221;-63
2021/05/19 02:17:04;;;;;;;;;;;;;;;8.23;84.99;95186.22;1749867;82;20161;-63
2021/05/19 02:19:31;;;;;;;;;;;;;;;8.27;84.93;95188.38;1749982;82;20139;-63
2021/05/19 02:21:58;;;;;;;;;;;;;;;8.19;84.63;95185.00;1749995;82;20158;-63
2021/05/19 02:24:26;;;;;;;;;;;;;;;8.12;84.48;95186.85;1749854;82;20138;-63
2021/05/19 02:26:52;;;;;;;;;;;;;;;8.07;84.57;95188.68;1749963;82;20162;-63
2021/05/19 02:29:20;;;;;;;;;;;;;;;8.07;84.58;95184.73;1749747;82;20158;-63
2021/05/19 02:31:46;;;;;;;;;;;;;;;8.02;84.46;95182.63;1749809;82;20511;-63
2021/05/19 02:34:13;;;;;;;;;;;;;;;7.91;83.90;95176.66;1749945;82;20154;-63
2021/05/19 02:36:40;;;;;;;;;;;;;;;7.83;84.09;95185.09;1749971;82;20239;-63
2021/05/19 02:39:10;;;;;;;;;;;;;;;7.75;84.01;95183.45;1749781;82;20150;-63
2021/05/19 02:41:38;;;;;;;;;;;;;;;7.59;84.21;95184.56;1749962;82;20507;-63
2021/05/19 02:44:06;;;;;;;;;;;;;;;7.45;84.44;95190.43;1749584;82;20491;-63
2021/05/19 02:46:33;;;;;;;;;;;;;;;7.35;84.85;95199.72;1749856;82;20158;-63
2021/05/19 02:49:02;;;;;;;;;;;;;;;7.27;85.17;95208.14;1749829;82;20138;-63
2021/05/19 02:51:34;;;;;;;;;;;;;;;7.24;85.49;95204.25;1749840;82;20166;-63
2021/05/19 02:54:02;;;;;;;;;;;;;;;7.21;86.14;95207.37;1720640;82;20498;-63
2021/05/19 02:56:28;;;;;;;;;;;;;;;7.13;86.37;95207.01;1749907;82;20162;-63
2021/05/19 02:58:54;;;;;;;;;;;;;;;7.07;86.83;95199.64;1749844;82;20198;-63
2021/05/19 03:01:21;;;;;;;;;;;;;;;7.03;86.82;95203.17;1749957;82;20242;-63
2021/05/19 03:03:47;;;;;;;;;;;;;;;7.03;87.49;95201.86;1749941;82;20182;-63
2021/05/19 03:06:14;;;;;;;;;;;;;;;7.01;87.38;95196.66;1744500;82;20198;-63
2021/05/19 03:08:40;;;;;;;;;;;;;;;7.03;88.07;95205.38;1694961;84;20217;-63
2021/05/19 03:11:06;;;;;;;;;;;;;;;7.05;87.92;95202.72;1694796;85;20149;-63
2021/05/19 03:13:33;;;;;;;;;;;;;;;7.02;87.47;95203.62;1694877;84;20526;-63
2021/05/19 03:16:00;;;;;;;;;;;;;;;7.02;87.97;95197.52;1682885;85;20557;-63
2021/05/19 03:18:26;;;;;;;;;;;;;;;6.98;88.19;95199.31;1695106;84;20153;-63
2021/05/19 03:20:53;;;;;;;;;;;;;;;6.93;88.05;95203.74;1694909;85;20221;-63
2021/05/19 03:23:19;;;;;;;;;;;;;;;6.91;87.82;95198.95;1694985;84;20184;-63
2021/05/19 03:25:46;;;;;;;;;;;;;;;6.88;88.21;95197.23;1695082;84;20173;-63
2021/05/19 03:28:12;;;;;;;;;;;;;;;6.90;88.67;95191.53;1694957;85;20168;-63
2021/05/19 03:30:39;;;;;;;;;;;;;;;6.98;88.34;95192.76;1694867;84;20485;-63
2021/05/19 03:33:06;;;;;;;;;;;;;;;7.04;88.57;95198.37;1694867;84;20176;-63
2021/05/19 03:35:33;;;;;;;;;;;;;;;7.10;88.57;95196.97;1694828;85;20145;-63
2021/05/19 03:38:00;;;;;;;;;;;;;;;7.14;88.61;95198.69;1694963;83;20157;-63
2021/05/19 03:40:27;;;;;;;;;;;;;;;7.23;88.26;95198.59;1694831;84;20533;-63
2021/05/19 03:42:53;;;;;;;;;;;;;;;7.31;88.08;95194.11;1694971;84;20527;-63
2021/05/19 03:45:21;;;;;;;;;;;;;;;7.44;87.90;95199.20;1694834;85;20165;-63
2021/05/19 03:47:51;;;;;;;;;;;;;;;7.54;87.83;95202.14;1694838;85;20148;-70
2021/05/19 03:50:18;;;;;;;;;;;;;;;7.67;87.58;95202.84;1694949;85;20164;-70
2021/05/19 03:52:44;;;;;;;;;;;;;;;7.74;87.33;95199.24;1694996;85;20200;-73
2021/05/19 03:55:12;;;;;;;;;;;;;;;7.81;87.28;95199.55;1694899;84;20211;-71
2021/05/19 03:57:39;;;;;;;;;;;;;;;7.96;87.22;95201.09;1694961;84;20497;-73
2021/05/19 04:00:08;;;;;;;;;;;;;;;8.10;87.02;95195.20;1695018;84;20149;-72
2021/05/19 04:02:36;;;;;;;;;;;;;;;8.21;86.60;95192.39;1694655;84;20244;-72
2021/05/19 04:05:03;;;;;;;;;;;;;;;8.40;86.45;95195.64;1695074;84;20486;-72
2021/05/19 04:07:29;;;;;;;;;;;;;;;8.53;86.47;95193.22;1694879;85;20140;-72
2021/05/19 04:09:56;;;;;;;;;;;;;;;8.71;86.20;95195.97;1723420;83;20497;-72
2021/05/19 04:12:22;;;;;;;;;;;;;;;8.79;85.19;95195.38;1723562;83;20156;-72
2021/05/19 04:14:48;;;;;;;;;;;;;;;8.87;85.17;95197.90;1723409;83;20176;-72
2021/05/19 04:17:15;;;;;;;;;;;;;;;9.02;85.18;95196.72;1723548;83;20160;-72
2021/05/19 04:19:41;;;;;;;;;;;;;;;9.16;84.34;95195.16;1723629;83;20184;-72
2021/05/19 04:22:08;;;;;;;;;;;;;;;9.20;84.00;95199.02;1723420;83;20449;-72
2021/05/19 04:24:34;;;;;;;;;;;;;;;9.31;84.11;95202.75;1723497;83;20172;-73
2021/05/19 04:27:01;;;;;;;;;;;;;;;9.38;83.63;95201.73;1723528;83;20484;-72
2021/05/19 04:29:27;;;;;;;;;;;;;;;9.47;83.32;95198.03;1723499;83;20180;-72
2021/05/19 04:31:53;;;;;;;;;;;;;;;9.61;83.46;95201.70;1723625;83;20167;-72
2021/05/19 04:34:20;;;;;;;;;;;;;;;9.70;83.29;95203.70;1724058;83;20469;-73
2021/05/19 04:36:46;;;;;;;;;;;;;;;9.84;83.19;95211.75;1723562;83;20148;-72
2021/05/19 04:39:12;;;;;;;;;;;;;;;9.95;82.82;95204.03;1721954;83;20224;-72
2021/05/19 04:41:39;;;;;;;;;;;;;;;10.05;82.82;95197.21;1715022;83;20156;-72
2021/05/19 04:44:05;;;;;;;;;;;;;;;10.14;82.31;95207.55;1714834;84;20141;-71
2021/05/19 04:46:34;;;;;;;;;;;;;;;10.18;81.99;95207.45;1714967;83;20517;-73
2021/05/19 04:49:00;;;;;;;;;;;;;;;10.22;82.12;95209.55;1715018;83;20177;-71
2021/05/19 04:51:27;;;;;;;;;;;;;;;10.27;81.50;95212.95;1708001;83;20467;-65
2021/05/19 04:53:53;;;;;;;;;;;;;;;10.31;80.88;95208.06;1708041;84;20214;-73
2021/05/19 04:56:20;;;;;;;;;;;;;;;10.30;79.99;95208.95;1708048;84;20173;-76
2021/05/19 04:58:46;;;;;;;;;;;;;;;10.27;80.05;95208.99;1707860;84;20150;-72
2021/05/19 05:01:13;;;;;;;;;;;;;;;10.30;80.09;95216.00;1707868;84;20157;-74
2021/05/19 05:03:39;;;;;;;;;;;;;;;10.34;80.86;95213.26;1708040;84;20166;-73
2021/05/19 05:06:05;;;;;;;;;;;;;;;10.39;80.94;95213.16;1708127;84;20182;-72
2021/05/19 05:08:31;;;;;;;;;;;;;;;10.43;80.63;95216.57;1715025;83;20227;-74
2021/05/19 05:10:58;;;;;;;;;;;;;;;10.48;80.41;95220.86;1714886;84;20505;-69
2021/05/19 05:13:24;;;;;;;;;;;;;;;10.53;80.46;95224.67;1714828;83;20536;-76
2021/05/19 05:15:51;;;;;;;;;;;;;;;10.59;80.31;95222.77;1714769;84;20142;-70
2021/05/19 05:18:17;;;;;;;;;;;;;;;10.66;80.29;95223.49;1714887;84;20544;-70
2021/05/19 05:20:43;;;;;;;;;;;;;;;10.75;80.61;95233.80;1715055;84;20160;-79
2021/05/19 05:23:10;;;;;;;;;;;;;;;10.85;80.49;95227.84;1714956;84;20517;-70
2021/05/19 05:25:36;;;;;;;;;;;;;;;10.94;79.85;95234.67;1714674;83;20626;-75
2021/05/19 05:28:03;;;;;;;;;;;;;;;10.98;79.16;95236.30;1715004;84;20208;-71
2021/05/19 05:30:29;;;;;;;;;;;;;;;10.99;78.53;95242.88;1714763;83;20163;-75
2021/05/19 05:32:55;;;;;;;;;;;;;;;11.03;78.28;95243.19;1714778;84;20157;-69
2021/05/19 05:35:22;;;;;;;;;;;;;;;11.11;78.43;95245.63;1715035;83;20141;-68
2021/05/19 05:37:48;;;;;;;;;;;;;;;11.17;77.53;95244.63;1714883;83;20490;-68
2021/05/19 05:40:14;;;;;;;;;;;;;;;11.20;77.55;95240.12;1719044;83;20164;-77
2021/05/19 05:42:41;;;;;;;;;;;;;;;11.25;76.90;95240.86;1723540;83;20180;-76
2021/05/19 05:45:08;;;;;;;;;;;;;;;11.40;77.20;95237.40;1723534;83;20153;-69
2021/05/19 05:47:35;;;;;;;;;;;;;;;11.51;76.68;95237.95;1723476;83;20163;-69
2021/05/19 05:50:03;;;;;;;;;;;;;;;11.62;76.70;95234.58;1701277;83;20148;-69
2021/05/19 05:52:30;;;;;;;;;;;;;;;11.78;76.71;95233.67;1723593;83;20180;-71
2021/05/19 05:54:56;;;;;;;;;;;;;;;11.88;76.02;95231.20;1711121;83;20130;-72
2021/05/19 05:57:23;;;;;;;;;;;;;;;11.97;75.38;95243.30;1694890;85;20190;-72
2021/05/19 05:59:49;;;;;;;;;;;;;;;12.09;74.56;95243.36;1694776;85;20175;-70
2021/05/19 06:02:15;;;;;;;;;;;;;;;12.25;75.32;95239.82;1694588;85;20495;-70
2021/05/19 06:04:42;;;;;;;;;;;;;;;12.41;74.12;95238.88;1694882;85;20210;-69
2021/05/19 06:07:08;;;;;;;;;;;;;;;12.53;73.18;95239.81;1694801;84;20150;-69
2021/05/19 06:09:34;;;;;;;;;;;;;;;12.62;71.48;95240.83;1694655;84;20154;-70
2021/05/19 06:12:00;;;;;;;;;;;;;;;12.80;72.36;95246.01;1694668;84;20500;-69
2021/05/19 06:14:27;;;;;;;;;;;;;;;12.95;71.35;95249.47;1694362;85;20158;-69
2021/05/19 06:16:55;;;;;;;;;;;;;;;13.02;71.25;95249.25;1694762;85;20208;-70
2021/05/19 06:19:21;;;;;;;;;;;;;;;13.10;70.97;95249.84;1694941;85;20235;-75
2021/05/19 06:21:47;;;;;;;;;;;;;;;13.17;69.10;95248.72;1694627;84;20134;-71
2021/05/19 06:24:13;;;;;;;;;;;;;;;13.16;69.10;95253.16;1694905;84;20162;-76
2021/05/19 06:26:40;;;;;;;;;;;;;;;13.18;68.46;95261.08;1694732;85;20511;-74
2021/05/19 06:29:06;;;;;;;;;;;;;;;13.25;69.17;95255.08;1694468;84;20170;-67
2021/05/19 06:31:33;;;;;;;;;;;;;;;13.34;67.96;95263.62;1694706;85;20154;-72
2021/05/19 06:33:59;;;;;;;;;;;;;;;13.33;67.51;95262.33;1697608;83;20182;-68
2021/05/19 06:36:25;;;;;;;;;;;;;;;13.36;67.34;95259.60;1706359;83;20212;-73
2021/05/19 06:38:51;;;;;;;;;;;;;;;13.33;66.87;95254.39;1706093;83;20159;-74
2021/05/19 06:41:18;;;;;;;;;;;;;;;13.29;66.47;95258.08;1723470;82;20227;-74
2021/05/19 06:43:44;;;;;;;;;;;;;;;13.37;66.71;95259.53;1707784;84;20178;-72
2021/05/19 06:46:11;;;;;;;;;;;;;;;13.38;66.12;95255.98;1707814;84;20161;-76
2021/05/19 06:48:37;;;;;;;;;;;;;;;13.31;67.28;95258.44;1708009;84;20222;-72
2021/05/19 06:51:05;;;;;;;;;;;;;;;13.38;66.85;95254.66;1707871;84;20157;-65
2021/05/19 06:53:31;;;;;;;;;;;;;;;13.52;66.11;95251.50;1707886;84;20161;-72
2021/05/19 06:55:59;;;;;;;;;;;;;;;13.59;66.25;95256.14;1707819;84;20502;-70
2021/05/19 06:58:25;;;;;;;;;;;;;;;13.69;66.05;95254.89;1707825;84;20518;-67
2021/05/19 07:00:53;;;;;;;;;;;;;;;13.72;66.47;95256.56;1707872;84;20202;-68
2021/05/19 07:03:19;;;;;;;;;;;;;;;13.77;66.19;95250.63;1709709;81;20167;-70
2021/05/19 07:05:46;;;;;;;;;;;;;;;13.75;66.84;95249.34;1708030;83;20171;-70
2021/05/19 07:08:13;;;;;;;;;;;;;;;13.83;67.42;95247.73;1707995;84;20172;-67
2021/05/19 07:10:39;;;;;;;;;;;;;;;14.11;67.64;95246.27;1707789;83;20211;-66
2021/05/19 07:13:05;;;;;;;;;;;;;;;14.24;65.96;95236.05;1707849;83;20155;-72
2021/05/19 07:15:35;;;;;;;;;;;;;;;14.41;65.39;95238.91;1708018;83;20140;-81
2021/05/19 07:18:15;;;;;;;;;;;;;;;14.67;63.91;95242.36;1707905;84;20187;-76
2021/05/19 07:20:41;;;;;;;;;;;;;;;14.76;63.08;95239.30;1708226;83;20224;-73
2021/05/19 07:23:07;;;;;;;;;;;;;;;14.86;63.40;95235.81;1708114;84;20223;-70
2021/05/19 07:25:33;;;;;;;;;;;;;;;15.01;63.68;95232.99;1707858;83;20144;-72
2021/05/19 07:28:01;;;;;;;;;;;;;;;15.20;61.24;95233.09;1707964;84;20500;-69
2021/05/19 07:30:28;;;;;;;;;;;;;;;15.12;61.32;95238.27;1707768;84;20239;-69
2021/05/19 07:32:54;;;;;;;;;;;;;;;15.19;61.53;95238.85;1707878;84;20513;-68
2021/05/19 07:35:21;;;;;;;;;;;;;;;15.35;59.32;95231.11;1708104;84;20231;-74
2021/05/19 07:37:47;;;;;;;;;;;;;;;15.47;58.36;95231.02;1707973;83;20148;-70
2021/05/19 07:40:14;;;;;;;;;;;;;;;15.56;59.13;95235.95;1704754;84;20152;-68
2021/05/19 07:42:41;;;;;;;;;;;;;;;15.65;58.88;95231.57;1694718;85;20243;-68
2021/05/19 07:45:09;;;;;;;;;;;;;;;15.61;56.21;95225.12;1694521;85;20498;-72
2021/05/19 07:47:35;;;;;;;;;;;;;;;15.47;55.35;95228.36;1694586;84;20581;-70
2021/05/19 07:50:03;;;;;;;;;;;;;;;15.56;58.01;95230.63;1694638;85;20177;-76
2021/05/19 07:52:29;;;;;;;;;;;;;;;15.67;58.64;95231.48;1694612;84;20490;-68
2021/05/19 07:54:55;;;;;;;;;;;;;;;15.76;59.12;95237.77;1694748;85;20152;-68
2021/05/19 07:57:26;;;;;;;;;;;;;;;15.79;59.20;95235.82;1694824;85;20173;-68
2021/05/19 08:02:37;;;;;;;;;;;;;;;15.94;57.14;95233.41;1694845;84;20169;-68
2021/05/19 08:05:04;;;;;;;;;;;;;;;15.95;54.54;95232.02;1694582;85;20168;-68
2021/05/19 08:07:30;;;;;;;;;;;;;;;15.92;56.53;95233.47;1694598;85;20509;-66
2021/05/19 08:09:57;;;;;;;;;;;;;;;16.08;56.89;95234.12;1694668;85;20161;-72
2021/05/19 08:12:23;;;;;;;;;;;;;;;16.16;56.96;95235.97;1694782;85;20485;-69
2021/05/19 08:14:49;;;;;;;;;;;;;;;16.18;56.57;95233.62;1694635;85;20148;-71
2021/05/19 08:17:18;;;;;;;;;;;;;;;16.32;55.60;95234.30;1694689;85;20208;-69
2021/05/19 08:19:44;;;;;;;;;;;;;;;16.64;55.74;95237.25;1694950;85;20502;-70
2021/05/19 08:22:15;;;;;;;;;;;;;;;17.02;55.48;95229.22;1682791;85;20141;-72
2021/05/19 08:24:40;;;;;;;;;;;;;;;17.31;53.92;95231.73;1694204;84;20177;-69
2021/05/19 08:27:06;;;;;;;;;;;;;;;17.28;52.83;95226.56;1694686;85;20156;-70
2021/05/19 08:29:33;;;;;;;;;;;;;;;17.22;51.47;95231.74;1694603;85;20217;-70
2021/05/19 08:31:59;;;;;;;;;;;;;;;17.02;48.78;95228.73;1694558;85;20166;-70
2021/05/19 08:34:26;;;;;;;;;;;;;;;16.93;51.96;95233.19;1694808;84;20157;-71
2021/05/19 08:36:52;;;;;;;;;;;;;;;16.80;51.14;95235.59;1694477;84;20510;-71
2021/05/19 08:39:19;;;;;;;;;;;;;;;16.65;52.11;95246.48;1694796;85;20157;-69
2021/05/19 08:41:48;;;;;;;;;;;;;;;16.49;51.57;95236.66;1710396;84;20212;-66
2021/05/19 08:44:15;;;;;;;;;;;;;;;16.50;53.96;95233.04;1715628;83;20525;-68
2021/05/19 08:46:48;;;;;;;;;;;;;;;16.64;54.64;95225.27;1715121;83;20148;-68
2021/05/19 08:49:17;;;;;;;;;;;;;;;16.63;52.41;95233.73;1715489;84;20196;-67
2021/05/19 08:51:45;;;;;;;;;;;;;;;16.72;54.02;95234.22;1715666;84;20188;-68
2021/05/19 08:54:12;;;;;;;;;;;;;;;16.84;54.13;95227.84;1715544;84;20148;-69
2021/05/19 08:56:40;;;;;;;;;;;;;;;16.98;51.80;95223.63;1715365;84;20220;-73
2021/05/19 08:59:07;;;;;;;;;;;;;;;17.15;52.59;95224.13;1715585;84;20148;-70
2021/05/19 09:01:48;;;;;;;;;;;;;;;17.25;51.83;95226.72;1715571;84;20133;-71
2021/05/19 09:04:23;;;;;;;;;;;;;;;17.00;49.33;95223.95;1715482;84;20176;-69
2021/05/19 09:07:02;;;;;;;;;;;;;;;16.93;50.64;95228.33;1715608;84;20228;-70
2021/05/19 09:09:30;;;;;;;;;;;;;;;17.12;52.43;95228.30;1715500;84;20156;-70
2021/05/19 09:12:11;;;;;;;;;;;;;;;17.38;51.94;95227.81;1715371;84;20228;-70
2021/05/19 09:14:42;;;;;;;;;;;;;;;17.49;51.67;95222.81;1715727;84;20220;-70
2021/05/19 09:17:17;;;;;;;;;;;;;;;17.46;53.01;95220.75;1715429;84;20688;-70
2021/05/19 09:19:43;;;;;;;;;;;;;;;17.34;50.26;95217.38;1715646;84;20180;-70
2021/05/19 09:22:17;;;;;;;;;;;;;;;17.23;49.86;95218.79;1715577;84;20168;-70
2021/05/19 09:24:44;;;;;;;;;;;;;;;17.12;49.93;95213.16;1715630;84;20208;-70
2021/05/19 09:27:10;;;;;;;;;;;;;;;17.10;50.57;95211.03;1715822;84;20152;-70
2021/05/19 09:29:37;;;;;;;;;;;;;;;17.30;50.20;95210.02;1715850;83;20160;-70
2021/05/19 09:32:07;;;;;;;;;;;;;;;17.61;51.02;95205.77;1715449;84;20200;-70
2021/05/19 09:34:37;;;;;;;;;;;;;;;17.87;50.44;95204.44;1715720;84;20153;-70
2021/05/19 09:37:15;;;;;;;;;;;;;;;18.26;51.04;95199.20;1715704;84;20152;-70
2021/05/19 09:39:51;;;;;;;;;;;;;;;18.47;48.96;95203.37;1715521;84;20145;-70
2021/05/19 09:42:19;;;;;;;;;;;;;;;18.53;49.29;95199.48;1697922;83;20525;-70
2021/05/19 09:44:47;;;;;;;;;;;;;;;18.65;47.55;95201.47;1694782;85;20221;-70
2021/05/19 09:47:16;;;;;;;;;;;;;;;18.64;49.65;95197.53;1694659;84;20189;-70
2021/05/19 09:49:42;;;;;;;;;;;;;;;18.52;47.91;95194.63;1693075;84;20152;-70
2021/05/19 09:52:12;;;;;;;;;;;;;;;18.42;47.33;95193.86;1694739;85;20486;-70
2021/05/19 09:54:43;;;;;;;;;;;;;;;18.25;46.22;95194.82;1694702;85;20152;-70
2021/05/19 09:57:11;;;;;;;;;;;;;;;18.07;46.85;95195.36;1694927;84;20228;-70
2021/05/19 09:59:41;;;;;;;;;;;;;;;17.89;48.33;95190.06;1694481;84;20212;-70
2021/05/19 10:02:09;;;;;;;;;;;;;;;17.73;48.46;95193.97;1694885;85;20220;-70
2021/05/19 10:04:40;;;;;;;;;;;;;;;17.56;49.64;95197.99;1694667;85;20161;-70
2021/05/19 10:07:06;;;;;;;;;;;;;;;17.39;48.65;95206.89;1694577;84;20552;-70
2021/05/19 10:09:32;;;;;;;;;;;;;;;17.27;48.59;95201.70;1694755;85;20165;-70
2021/05/19 10:11:59;;;;;;;;;;;;;;;17.17;48.95;95198.27;1694759;85;20185;-70
2021/05/19 10:14:25;;;;;;;;;;;;;;;17.17;48.40;95200.93;1694706;84;20241;-70
2021/05/19 10:16:56;;;;;;;;;;;;;;;17.15;48.93;95201.47;1694626;84;20137;-70
2021/05/19 10:19:28;;;;;;;;;;;;;;;17.11;49.09;95202.11;1713245;83;20195;-70
2021/05/19 10:21:56;;;;;;;;;;;;;;;17.11;49.41;95207.89;1684625;84;20228;-70
2021/05/19 10:24:43;;;;;;;;;;;;;;;17.12;49.51;95200.30;1685135;85;20185;-70
2021/05/19 10:27:09;;;;;;;;;;;;;;;17.13;49.08;95200.69;1685079;85;20250;-69
2021/05/19 10:29:51;;;;;;;;;;;;;;;17.21;49.58;95191.37;1685230;85;20181;-70
2021/05/19 10:32:32;;;;;;;;;;;;;;;17.32;48.71;95192.63;1685015;85;20153;-70
2021/05/19 10:35:01;;;;;;;;;;;;;;;17.38;48.14;95177.63;1685287;85;20161;-70
2021/05/19 10:37:31;;;;;;;;;;;;;;;17.49;48.88;95180.13;1685030;85;20240;-70
2021/05/19 10:40:13;;;;;;;;;;;;;;;17.64;48.78;95184.25;1685150;85;20185;-70
2021/05/19 10:42:43;;;;;;;;;;;;;;;17.81;49.09;95179.39;1677569;85;20169;-70
2021/05/19 10:45:14;;;;;;;;;;;;;;;17.97;47.78;95173.63;1693861;84;20149;-70
2021/05/19 10:47:42;;;;;;;;;;;;;;;18.21;48.54;95177.23;1694650;84;20224;-70
2021/05/19 10:50:13;;;;;;;;;;;;;;;18.49;47.60;95173.39;1694770;85;20173;-70
2021/05/19 10:58:54;;;;;;;;;;;;;;;19.29;45.68;95164.80;1694882;85;20224;-70
2021/05/19 11:01:27;;;;;;;;;;;;;;;18.96;45.53;95170.33;1694695;84;20196;-68
2021/05/19 11:04:13;;;;;;;;;;;;;;;18.83;48.58;95168.84;1676345;84;20165;-70
2021/05/19 11:07:01;;;;;;;;;;;;;;;18.66;46.87;95167.59;1694862;85;20164;-70
2021/05/19 11:09:30;;;;;;;;;;;;;;;18.37;48.40;95168.30;1694737;84;20239;-70
2021/05/19 11:12:22;;;;;;;;;;;;;;;18.14;48.03;95166.91;1694717;85;20176;-70
2021/05/19 11:15:01;;;;;;;;;;;;;;;18.05;46.18;95170.55;1694850;85;20168;-70
2021/05/19 11:17:36;;;;;;;;;;;;;;;18.11;47.36;95174.20;1693232;84;20208;-70
2021/05/19 11:19:57;;;;;;;;;;;;;;;18.27;46.85;95172.42;1694252;84;20169;-70
2021/05/19 11:22:23;;;;;;;;;;;;;;;18.51;49.55;95175.52;1694854;85;20477;-70
2021/05/19 11:24:53;;;;;;;;;;;;;;;18.92;47.27;95166.95;1694551;84;20184;-70
2021/05/19 11:27:30;;;;;;;;;;;;;;;19.37;43.65;95163.86;1694833;85;20201;-70
2021/05/19 11:29:57;;;;;;;;;;;;;;;19.76;43.75;95161.09;1694731;85;20165;-70
2021/05/19 11:32:26;;;;;;;;;;;;;;;19.92;43.09;95152.97;1694486;85;20505;-70
2021/05/19 11:34:54;;;;;;;;;;;;;;;20.14;43.82;95158.33;1694706;85;20156;-71
2021/05/19 11:37:21;;;;;;;;;;;;;;;20.20;45.07;95146.73;1694586;85;20156;-70
2021/05/19 11:39:53;;;;;;;;;;;;;;;20.26;42.88;95150.38;1694757;84;20165;-70
2021/05/19 11:42:24;;;;;;;;;;;;;;;20.13;47.33;95152.09;1707236;84;20196;-70
2021/05/19 11:45:00;;;;;;;;;;;;;;;20.26;46.01;95150.38;1715465;84;20145;-70
2021/05/19 11:47:33;;;;;;;;;;;;;;;20.35;41.26;95152.92;1715414;84;20200;-70
2021/05/19 11:50:19;;;;;;;;;;;;;;;20.19;41.19;95147.70;1715274;83;20224;-70
2021/05/19 11:52:57;;;;;;;;;;;;;;;20.15;40.77;95142.14;1715507;83;20173;-70
2021/05/19 11:55:35;;;;;;;;;;;;;;;19.87;40.98;95131.83;1715730;84;20160;-70
2021/05/19 11:58:14;;;;;;;;;;;;;;;19.71;42.94;95135.58;1715627;83;20180;-70
2021/05/19 12:00:57;;;;;;;;;;;;;;;19.66;41.23;95125.97;1715647;84;20570;-70
2021/05/19 12:03:26;;;;;;;;;;;;;;;19.55;42.36;95131.59;1715630;84;20148;-70
2021/05/19 12:05:59;;;;;;;;;;;;;;;19.34;41.78;95132.43;1715676;83;20505;-69
2021/05/19 12:08:38;;;;;;;;;;;;;;;19.36;43.55;95130.53;1715622;83;20581;-70
2021/05/19 12:11:24;;;;;;;;;;;;;;;19.29;42.94;95134.04;1715711;84;20155;-70
2021/05/19 12:14:04;;;;;;;;;;;;;;;19.23;42.96;95131.75;1715619;84;20156;-70
2021/05/19 12:16:35;;;;;;;;;;;;;;;19.28;43.27;95126.98;1716015;84;20148;-71
2021/05/19 12:19:16;;;;;;;;;;;;;;;19.40;43.20;95127.58;1714761;84;20164;-70
2021/05/19 12:22:07;;;;;;;;;;;;;;;19.73;42.97;95123.81;1715635;83;20184;-70
2021/05/19 12:24:34;;;;;;;;;;;;;;;19.92;43.19;95119.98;1715720;84;20498;-70
2021/05/19 12:27:01;;;;;;;;;;;;;;;20.40;43.24;95129.86;1715517;84;20244;-70
2021/05/19 12:29:45;;;;;;;;;;;;;;;20.70;42.61;95131.05;1715781;83;20156;-71
2021/05/19 12:32:27;;;;;;;;;;;;;;;21.03;41.37;95132.45;1715404;83;20158;-70
2021/05/19 12:35:03;;;;;;;;;;;;;;;21.05;39.09;95130.53;1715510;84;20147;-71
2021/05/19 12:37:43;;;;;;;;;;;;;;;21.06;40.15;95138.95;1715594;83;20493;-70
2021/05/19 12:40:12;;;;;;;;;;;;;;;20.99;38.27;95130.47;1708115;84;20164;-71
2021/05/19 12:42:45;;;;;;;;;;;;;;;20.77;40.02;95132.38;1702204;84;20185;-70
2021/05/19 12:45:12;;;;;;;;;;;;;;;20.38;43.41;95129.09;1693917;84;20216;-70
2021/05/19 12:47:40;;;;;;;;;;;;;;;20.33;42.46;95125.37;1694347;84;20208;-70
2021/05/19 12:50:08;;;;;;;;;;;;;;;20.16;41.16;95131.83;1694821;85;20233;-70
2021/05/19 12:52:36;;;;;;;;;;;;;;;19.91;41.84;95124.48;1694920;85;20244;-70
2021/05/19 12:55:05;;;;;;;;;;;;;;;19.79;42.37;95123.91;1695167;85;20149;-71
2021/05/19 12:57:33;;;;;;;;;;;;;;;19.85;44.01;95125.70;1694735;84;20157;-70
2021/05/19 13:00:14;;;;;;;;;;;;;;;20.01;46.27;95129.64;1694846;85;20240;-70
2021/05/19 13:02:43;;;;;;;;;;;;;;;20.23;44.81;95130.94;1694734;84;20185;-70
2021/05/19 13:05:19;;;;;;;;;;;;;;;19.99;43.61;95130.69;1694844;85;20218;-70
2021/05/19 13:07:50;;;;;;;;;;;;;;;19.82;42.35;95119.70;1695055;85;20161;-70